createdAt,value
2022-08-17T00:00:51.709Z,76.26
2022-08-17T00:03:23.408Z,77.00
2022-08-17T00:05:54.921Z,76.20
2022-08-17T00:08:23.438Z,76.93
2022-08-17T00:10:50.692Z,77.15
2022-08-17T00:13:19.509Z,77.06
2022-08-17T00:15:46.426Z,77.58
2022-08-17T00:19:06.395Z,76.76
2022-08-17T00:21:00.594Z,76.71
2022-08-17T00:23:27.774Z,77.13
2022-08-17T00:25:55.089Z,78.78
2022-08-17T00:28:21.908Z,79.34
2022-08-17T00:30:52.739Z,77.98
2022-08-17T00:33:25.556Z,76.76
2022-08-17T00:35:53.028Z,76.12
2022-08-17T00:38:20.275Z,76.43
2022-08-17T00:40:48.634Z,76.46
2022-08-17T00:43:36.183Z,75.93
2022-08-17T00:46:23.181Z,75.60
2022-08-17T00:48:50.210Z,75.76
2022-08-17T00:51:19.539Z,76.76
2022-08-17T00:53:50.077Z,78.73
2022-08-17T00:56:27.440Z,80.08
2022-08-17T00:58:54.590Z,81.27
2022-08-17T01:01:22.144Z,79.60
2022-08-17T01:03:49.188Z,79.15
2022-08-17T01:06:15.739Z,78.94
2022-08-17T01:08:43.102Z,79.41
2022-08-17T01:11:09.567Z,78.30
2022-08-17T01:13:41.469Z,78.14
2022-08-17T01:16:15.867Z,79.60
2022-08-17T01:18:43.214Z,80.41
2022-08-17T01:21:19.335Z,80.96
2022-08-17T01:23:45.885Z,79.23
2022-08-17T01:26:12.451Z,79.27
2022-08-17T01:28:55.004Z,79.31
2022-08-17T01:31:23.211Z,79.18
2022-08-17T01:33:49.883Z,79.74
2022-08-17T01:36:16.602Z,79.90
2022-08-17T01:38:43.587Z,80.92
2022-08-17T01:41:12.372Z,82.19
2022-08-17T01:43:50.991Z,80.83
2022-08-17T01:46:21.790Z,81.61
2022-08-17T01:48:48.643Z,82.21
2022-08-17T01:51:15.951Z,81.42
2022-08-17T01:53:45.983Z,81.77
2022-08-17T01:56:14.193Z,81.17
2022-08-17T01:58:41.444Z,82.01
2022-08-17T02:01:09.848Z,81.76
2022-08-17T02:03:37.754Z,83.47
2022-08-17T02:06:05.202Z,83.05
2022-08-17T02:08:39.010Z,84.41
2022-08-17T02:11:22.437Z,82.76
2022-08-17T02:13:57.896Z,81.43
2022-08-17T02:16:37.299Z,82.71
2022-08-17T02:19:08.593Z,82.22
2022-08-17T02:21:36.406Z,83.16
2022-08-17T02:24:03.625Z,85.22
2022-08-17T02:26:30.186Z,86.36
2022-08-17T02:28:56.884Z,88.06
2022-08-17T02:31:23.498Z,87.10
2022-08-17T02:34:00.260Z,85.64
2022-08-17T02:36:31.901Z,84.57
2022-08-17T02:38:58.650Z,85.03
2022-08-17T02:41:25.426Z,84.12
2022-08-17T02:43:53.140Z,84.75
2022-08-17T02:46:19.707Z,85.61
2022-08-17T02:48:46.352Z,85.30
2022-08-17T02:51:12.869Z,85.21
2022-08-17T02:53:39.377Z,84.49
2022-08-17T02:56:06.156Z,84.29
2022-08-17T02:58:35.442Z,84.42
2022-08-17T03:01:03.530Z,85.00
2022-08-17T03:03:30.095Z,85.37
2022-08-17T03:05:56.642Z,86.03
2022-08-17T03:08:23.423Z,87.37
2022-08-17T03:10:50.502Z,87.03
2022-08-17T03:13:17.570Z,86.58
2022-08-17T03:15:47.566Z,85.92
2022-08-17T03:18:21.966Z,86.14
2022-08-17T03:20:52.463Z,86.40
2022-08-17T03:23:19.085Z,85.47
2022-08-17T03:25:53.128Z,86.61
2022-08-17T03:28:20.259Z,87.98
2022-08-17T03:30:46.916Z,87.45
2022-08-17T03:33:13.729Z,86.97
2022-08-17T03:35:40.831Z,87.00
2022-08-17T03:38:08.227Z,87.82
2022-08-17T03:40:57.632Z,87.81
2022-08-17T03:43:22.162Z,87.28
2022-08-17T03:46:11.007Z,87.82
2022-08-17T03:49:12.537Z,86.70
2022-08-17T03:51:57.771Z,87.40
2022-08-17T03:54:42.731Z,87.98
2022-08-17T03:57:10.427Z,88.69
2022-08-17T03:59:37.522Z,88.81
2022-08-17T04:02:09.459Z,88.49
2022-08-17T04:04:36.802Z,88.33
2022-08-17T04:07:03.469Z,87.54
2022-08-17T04:09:29.961Z,87.77
2022-08-17T04:11:57.279Z,87.41
2022-08-17T04:14:31.142Z,87.32
2022-08-17T04:16:57.670Z,88.55
2022-08-17T04:19:24.148Z,88.70
2022-08-17T04:21:50.655Z,89.37
2022-08-17T04:24:17.161Z,88.74
2022-08-17T04:26:53.668Z,87.99
2022-08-17T04:29:21.360Z,88.77
2022-08-17T04:31:48.044Z,88.14
2022-08-17T04:34:14.614Z,88.79
2022-08-17T04:36:50.329Z,88.63
2022-08-17T04:39:17.146Z,88.32
2022-08-17T04:42:02.352Z,87.23
2022-08-17T04:44:37.579Z,87.56
2022-08-17T04:47:04.610Z,87.07
2022-08-17T04:49:32.518Z,85.77
2022-08-17T04:52:01.259Z,84.90
2022-08-17T04:54:31.006Z,85.26
2022-08-17T04:56:57.489Z,84.81
2022-08-17T04:59:24.037Z,84.01
2022-08-17T05:01:51.976Z,86.29
2022-08-17T05:04:19.967Z,85.47
2022-08-17T05:06:59.523Z,83.84
2022-08-17T05:09:26.875Z,83.06
2022-08-17T05:11:53.423Z,83.29
2022-08-17T05:14:33.062Z,82.45
2022-08-17T05:17:01.138Z,81.93
2022-08-17T05:19:28.383Z,82.11
2022-08-17T05:21:54.963Z,80.99
2022-08-17T05:24:42.727Z,81.57
2022-08-17T05:27:08.017Z,80.38
2022-08-17T05:29:35.791Z,79.39
2022-08-17T05:32:38.642Z,78.52
2022-08-17T05:35:01.675Z,77.16
2022-08-17T05:37:28.210Z,75.94
2022-08-17T05:39:54.836Z,74.77
2022-08-17T05:42:21.603Z,74.21
2022-08-17T05:44:48.186Z,73.67
2022-08-17T05:47:14.719Z,71.70
2022-08-17T05:49:42.377Z,71.80
2022-08-17T05:52:26.369Z,71.94
2022-08-17T05:55:05.288Z,72.65
2022-08-17T05:57:34.927Z,70.85
2022-08-17T06:00:01.408Z,70.11
2022-08-17T06:02:34.002Z,68.68
2022-08-17T06:05:12.843Z,67.10
2022-08-17T06:07:39.290Z,66.32
2022-08-17T06:10:24.791Z,64.93
2022-08-17T06:12:54.222Z,64.99
2022-08-17T06:15:31.019Z,62.95
2022-08-17T06:17:59.962Z,65.32
2022-08-17T06:20:30.333Z,63.56
2022-08-17T06:23:02.910Z,65.96
2022-08-17T06:25:39.513Z,63.57
2022-08-17T06:28:09.416Z,60.83
2022-08-17T06:30:59.657Z,60.76
2022-08-17T06:33:33.751Z,60.29
2022-08-17T06:36:24.956Z,57.11
2022-08-17T06:39:04.352Z,57.26
2022-08-17T06:41:42.959Z,55.98
2022-08-17T06:44:43.668Z,56.58
2022-08-17T06:47:08.962Z,56.86
2022-08-17T06:49:40.414Z,56.24
2022-08-17T06:52:12.405Z,55.53
2022-08-17T06:55:02.321Z,54.89
2022-08-17T06:57:31.169Z,50.30
2022-08-17T07:00:01.692Z,53.07
2022-08-17T07:02:51.190Z,51.85
2022-08-17T07:05:21.048Z,52.54
2022-08-17T07:08:04.217Z,52.90
2022-08-17T07:10:39.154Z,51.84
2022-08-17T07:13:29.457Z,48.62
2022-08-17T07:16:15.399Z,49.14
2022-08-17T07:18:43.863Z,48.60
2022-08-17T07:21:25.859Z,48.46
2022-08-17T07:24:02.994Z,48.91
2022-08-17T07:26:29.694Z,47.29
2022-08-17T07:28:56.260Z,47.86
2022-08-17T07:31:24.969Z,47.10
2022-08-17T07:33:59.712Z,46.41
2022-08-17T07:36:30.018Z,44.76
2022-08-17T07:38:57.968Z,45.09
2022-08-17T07:41:24.488Z,44.31
2022-08-17T07:43:52.752Z,42.65
2022-08-17T07:46:42.771Z,42.91
2022-08-17T07:49:09.238Z,42.61
2022-08-17T07:51:39.037Z,43.29
2022-08-17T07:54:21.522Z,42.22
2022-08-17T07:56:52.629Z,41.31
2022-08-17T07:59:23.715Z,40.60
2022-08-17T08:02:14.888Z,39.76
2022-08-17T08:05:02.023Z,39.69
2022-08-17T08:07:31.700Z,40.70
2022-08-17T08:10:07.575Z,39.92
2022-08-17T08:12:39.642Z,38.44
2022-08-17T08:15:17.650Z,40.24
2022-08-17T08:17:47.005Z,40.15
2022-08-17T08:20:51.029Z,39.53
2022-08-17T08:23:00.599Z,40.30
2022-08-17T08:25:39.814Z,38.77
2022-08-17T08:28:12.105Z,39.12
2022-08-17T08:30:43.778Z,40.19
2022-08-17T08:33:21.411Z,40.94
2022-08-17T08:35:53.844Z,36.62
2022-08-17T08:38:23.475Z,37.54
2022-08-17T08:41:10.249Z,36.70
2022-08-17T08:43:55.616Z,35.46
2022-08-17T08:46:36.491Z,35.20
2022-08-17T08:49:17.030Z,34.42
2022-08-17T08:51:43.899Z,34.12
2022-08-17T08:54:16.568Z,33.76
2022-08-17T08:57:21.563Z,33.61
2022-08-17T08:59:57.841Z,34.43
2022-08-17T09:02:41.129Z,33.26
2022-08-17T09:05:26.471Z,32.54
2022-08-17T09:08:11.580Z,34.68
2022-08-17T09:10:57.673Z,33.98
2022-08-17T09:13:24.153Z,33.70
2022-08-17T09:15:57.330Z,33.94
2022-08-17T09:19:03.527Z,33.60
2022-08-17T09:21:19.250Z,33.20
2022-08-17T09:23:59.404Z,33.27
2022-08-17T09:26:30.908Z,30.24
2022-08-17T09:29:01.505Z,30.67
2022-08-17T09:31:49.539Z,30.05
2022-08-17T09:34:18.258Z,31.05
2022-08-17T09:37:03.445Z,31.84
2022-08-17T09:39:35.605Z,31.32
2022-08-17T09:42:05.227Z,29.68
2022-08-17T09:44:50.276Z,30.54
2022-08-17T09:47:38.007Z,29.95
2022-08-17T09:50:15.343Z,30.13
2022-08-17T09:52:42.135Z,30.37
2022-08-17T09:55:08.659Z,31.06
2022-08-17T09:57:58.839Z,30.28
2022-08-17T10:00:33.632Z,30.25
2022-08-17T10:03:09.715Z,28.93
2022-08-17T10:06:06.869Z,27.87
2022-08-17T10:08:36.635Z,27.69
2022-08-17T10:11:15.304Z,29.68
2022-08-17T10:13:52.824Z,28.94
2022-08-17T10:16:26.128Z,29.61
2022-08-17T10:18:52.675Z,28.54
2022-08-17T10:21:38.146Z,27.09
2022-08-17T10:25:22.962Z,26.59
2022-08-17T10:27:33.983Z,26.67
2022-08-17T10:30:04.596Z,26.60
2022-08-17T10:32:39.636Z,26.63
2022-08-17T10:35:16.071Z,26.31
2022-08-17T10:37:48.452Z,25.36
2022-08-17T10:40:15.035Z,24.99
2022-08-17T10:42:54.937Z,25.65
2022-08-17T10:45:32.192Z,25.86
2022-08-17T10:48:21.734Z,24.80
2022-08-17T10:51:00.097Z,25.63
2022-08-17T10:53:32.731Z,25.57
2022-08-17T10:56:14.601Z,24.85
2022-08-17T10:59:00.438Z,25.24
2022-08-17T11:01:33.805Z,26.18
2022-08-17T11:04:09.193Z,24.64
2022-08-17T11:06:36.089Z,25.18
2022-08-17T11:09:16.363Z,25.89
2022-08-17T11:11:43.419Z,25.01
2022-08-17T11:14:20.537Z,23.70
2022-08-17T11:17:01.381Z,23.86
2022-08-17T11:19:36.958Z,23.58
2022-08-17T11:22:35.788Z,23.46
2022-08-17T11:25:13.809Z,23.75
2022-08-17T11:27:41.144Z,24.91
2022-08-17T11:30:13.673Z,24.06
2022-08-17T11:32:47.092Z,23.92
2022-08-17T11:35:26.879Z,23.07
2022-08-17T11:38:00.772Z,23.97
2022-08-17T11:40:33.870Z,24.07
2022-08-17T11:43:10.075Z,25.47
2022-08-17T11:45:45.925Z,24.53
2022-08-17T11:48:44.840Z,23.59
2022-08-17T11:51:29.869Z,25.24
2022-08-17T11:54:21.589Z,25.70
2022-08-17T11:56:49.120Z,25.60
2022-08-17T11:59:37.005Z,24.31
2022-08-17T12:02:05.112Z,22.26
2022-08-17T12:04:35.155Z,22.73
2022-08-17T12:07:16.173Z,22.86
2022-08-17T12:09:45.284Z,24.49
2022-08-17T12:12:20.236Z,24.54
2022-08-17T12:17:41.525Z,23.58
2022-08-17T12:20:23.025Z,22.85
2022-08-17T12:23:04.200Z,23.70
2022-08-17T12:25:37.906Z,23.58
2022-08-17T12:28:19.852Z,24.98
2022-08-17T12:30:52.164Z,23.76
2022-08-17T12:33:25.467Z,23.62
2022-08-17T12:35:59.448Z,23.45
2022-08-17T12:38:33.037Z,23.12
2022-08-17T12:41:21.097Z,23.68
2022-08-17T12:43:55.913Z,23.59
2022-08-17T12:46:22.470Z,23.25
2022-08-17T12:48:59.169Z,22.79
2022-08-17T12:51:27.581Z,24.20
2022-08-17T12:53:55.058Z,24.54
2022-08-17T12:56:21.708Z,23.73
2022-08-17T12:58:56.747Z,22.60
2022-08-17T13:01:24.993Z,22.18
2022-08-17T13:03:53.812Z,23.07
2022-08-17T13:06:32.242Z,22.52
2022-08-17T13:09:09.048Z,21.14
2022-08-17T13:11:35.538Z,21.48
2022-08-17T13:14:09.428Z,23.42
2022-08-17T13:16:36.285Z,23.90
2022-08-17T13:19:07.756Z,22.70
2022-08-17T13:21:35.114Z,22.72
2022-08-17T13:24:04.741Z,22.23
2022-08-17T13:26:31.275Z,23.40
2022-08-17T13:28:58.379Z,23.38
2022-08-17T13:31:28.455Z,23.04
2022-08-17T13:34:14.428Z,21.63
2022-08-17T13:36:42.156Z,22.68
2022-08-17T13:39:18.773Z,22.22
2022-08-17T13:41:45.728Z,22.66
2022-08-17T13:44:31.116Z,23.27
2022-08-17T13:46:59.537Z,22.99
2022-08-17T13:49:41.937Z,22.23
2022-08-17T13:52:30.527Z,23.48
2022-08-17T13:54:59.470Z,22.26
2022-08-17T13:57:26.226Z,23.08
2022-08-17T14:00:05.764Z,23.50
2022-08-17T14:02:34.844Z,24.13
2022-08-17T14:05:02.056Z,23.30
2022-08-17T14:07:34.816Z,23.37
2022-08-17T14:10:04.619Z,24.23
2022-08-17T14:12:33.012Z,23.77
2022-08-17T14:14:59.543Z,23.72
2022-08-17T14:17:26.788Z,23.19
2022-08-17T14:19:53.312Z,22.28
2022-08-17T14:22:23.696Z,22.06
2022-08-17T14:24:51.316Z,24.70
2022-08-17T14:27:18.365Z,23.82
2022-08-17T14:29:44.946Z,23.17
2022-08-17T14:32:17.039Z,22.96
2022-08-17T14:34:44.920Z,23.79
2022-08-17T14:37:12.221Z,23.80
2022-08-17T14:39:39.094Z,24.80
2022-08-17T14:42:05.725Z,23.43
2022-08-17T14:44:32.506Z,24.40
2022-08-17T14:46:59.028Z,22.53
2022-08-17T14:49:25.992Z,23.53
2022-08-17T14:51:52.907Z,22.92
2022-08-17T14:54:33.389Z,23.74
2022-08-17T14:57:02.882Z,23.08
2022-08-17T14:59:49.222Z,22.82
2022-08-17T15:02:22.731Z,22.54
2022-08-17T15:05:01.784Z,23.70
2022-08-17T15:07:30.995Z,24.17
2022-08-17T15:09:58.774Z,23.42
2022-08-17T15:12:32.265Z,23.13
2022-08-17T15:15:01.031Z,23.73
2022-08-17T15:17:44.929Z,24.17
2022-08-17T15:20:20.679Z,23.38
2022-08-17T15:22:49.844Z,23.54
2022-08-17T15:25:17.761Z,25.05
2022-08-17T15:27:44.348Z,24.96
2022-08-17T15:30:11.722Z,25.03
2022-08-17T15:32:39.497Z,24.46
2022-08-17T15:35:07.122Z,24.24
2022-08-17T15:37:33.605Z,25.08
2022-08-17T15:40:01.146Z,25.37
2022-08-17T15:42:27.975Z,24.70
2022-08-17T15:44:55.217Z,25.16
2022-08-17T15:47:22.066Z,25.38
2022-08-17T15:49:48.892Z,25.95
2022-08-17T15:52:20.543Z,26.28
2022-08-17T15:54:56.506Z,26.71
2022-08-17T15:57:25.696Z,26.56
2022-08-17T15:59:55.260Z,26.79
2022-08-17T16:03:20.363Z,26.67
2022-08-17T16:05:21.970Z,26.43
2022-08-17T16:07:52.154Z,26.51
2022-08-17T16:10:19.494Z,26.81
2022-08-17T16:12:47.524Z,26.76
2022-08-17T16:15:14.589Z,26.19
2022-08-17T16:17:43.867Z,26.59
2022-08-17T16:20:20.029Z,26.48
2022-08-17T16:22:48.371Z,25.61
2022-08-17T16:25:18.823Z,25.98
2022-08-17T16:27:46.666Z,26.02
2022-08-17T16:30:17.600Z,26.12
2022-08-17T16:32:45.207Z,26.74
2022-08-17T16:35:14.333Z,26.69
2022-08-17T16:37:45.378Z,26.72
2022-08-17T16:40:12.773Z,26.87
2022-08-17T16:42:39.683Z,26.92
2022-08-17T16:45:09.851Z,26.79
2022-08-17T16:47:36.546Z,27.03
2022-08-17T16:50:04.469Z,27.41
2022-08-17T16:52:32.748Z,27.22
2022-08-17T16:55:01.346Z,26.98
2022-08-17T16:57:28.166Z,27.43
2022-08-17T16:59:54.776Z,27.77
2022-08-17T17:02:32.553Z,27.29
2022-08-17T17:05:17.676Z,27.41
2022-08-17T17:07:50.922Z,27.62
2022-08-17T17:10:20.667Z,27.31
2022-08-17T17:13:03.833Z,27.91
2022-08-17T17:15:54.260Z,27.61
2022-08-17T17:18:23.174Z,28.60
2022-08-17T17:20:54.989Z,28.96
2022-08-17T17:23:40.380Z,29.00
2022-08-17T17:26:28.389Z,29.48
2022-08-17T17:29:10.812Z,30.22
2022-08-17T17:31:41.154Z,31.05
2022-08-17T17:34:10.633Z,31.96
2022-08-17T17:36:50.248Z,32.98
2022-08-17T17:39:32.434Z,33.65
2022-08-17T17:42:02.697Z,35.04
2022-08-17T17:44:35.108Z,37.07
2022-08-17T17:47:02.634Z,37.94
2022-08-17T17:49:41.511Z,37.86
2022-08-17T17:52:26.187Z,38.38
2022-08-17T17:54:58.936Z,39.28
2022-08-17T17:57:25.645Z,40.01
2022-08-17T18:00:22.100Z,40.17
2022-08-17T18:02:51.695Z,40.37
2022-08-17T18:05:39.583Z,41.02
2022-08-17T18:08:21.423Z,40.87
2022-08-17T18:11:00.392Z,41.53
2022-08-17T18:13:50.623Z,42.31
2022-08-17T18:16:18.359Z,42.23
2022-08-17T18:18:47.334Z,44.74
2022-08-17T18:21:19.430Z,43.75
2022-08-17T18:23:53.762Z,43.57
2022-08-17T18:26:32.699Z,43.49
2022-08-17T18:29:00.334Z,43.90
2022-08-17T18:31:27.088Z,45.28
2022-08-17T18:33:55.350Z,45.14
2022-08-17T18:36:36.366Z,45.76
2022-08-17T18:39:15.240Z,46.40
2022-08-17T18:42:00.652Z,47.94
2022-08-17T18:44:29.146Z,47.12
2022-08-17T18:47:06.847Z,46.17
2022-08-17T18:49:33.902Z,47.62
2022-08-17T18:52:09.186Z,48.52
2022-08-17T18:54:38.718Z,47.47
2022-08-17T18:57:06.136Z,48.24
2022-08-17T18:59:43.565Z,49.72
2022-08-17T19:02:20.690Z,50.76
2022-08-17T19:04:59.592Z,50.09
2022-08-17T19:07:28.307Z,49.60
2022-08-17T19:09:58.184Z,49.28
2022-08-17T19:12:27.504Z,53.16
2022-08-17T19:14:55.935Z,53.03
2022-08-17T19:17:25.506Z,53.55
2022-08-17T19:20:09.049Z,51.72
2022-08-17T19:22:52.465Z,51.90
2022-08-17T19:25:22.921Z,50.65
2022-08-17T19:27:57.717Z,52.46
2022-08-17T19:30:25.103Z,52.11
2022-08-17T19:32:52.997Z,52.21
2022-08-17T19:35:22.072Z,53.31
2022-08-17T19:37:49.500Z,53.49
2022-08-17T19:40:51.810Z,52.63
2022-08-17T19:43:30.746Z,51.48
2022-08-17T19:46:08.980Z,50.71
2022-08-17T19:48:54.117Z,52.58
2022-08-17T19:51:30.125Z,53.12
2022-08-17T19:54:06.657Z,52.28
2022-08-17T19:56:54.433Z,52.27
2022-08-17T19:59:36.150Z,52.75
2022-08-17T20:02:18.971Z,53.57
2022-08-17T20:04:46.904Z,52.96
2022-08-17T20:07:19.062Z,52.84
2022-08-17T20:09:54.540Z,54.43
2022-08-17T20:12:23.985Z,54.26
2022-08-17T20:14:57.242Z,53.26
2022-08-17T20:17:28.199Z,56.74
2022-08-17T20:20:24.347Z,56.42
2022-08-17T20:22:59.107Z,56.19
2022-08-17T20:25:31.545Z,54.15
2022-08-17T20:28:03.828Z,54.18
2022-08-17T20:30:34.682Z,54.84
2022-08-17T20:33:02.261Z,56.76
2022-08-17T20:35:32.884Z,57.24
2022-08-17T20:38:10.937Z,56.51
2022-08-17T20:40:56.568Z,56.43
2022-08-17T20:43:35.561Z,56.13
2022-08-17T20:46:02.356Z,56.74
2022-08-17T20:48:38.371Z,57.02
2022-08-17T20:51:18.138Z,58.36
2022-08-17T20:53:47.664Z,58.96
2022-08-17T20:56:32.700Z,57.27
2022-08-17T20:59:00.752Z,57.08
2022-08-17T21:01:40.099Z,57.90
2022-08-17T21:04:08.730Z,58.48
2022-08-17T21:06:55.170Z,58.28
2022-08-17T21:09:28.055Z,57.59
2022-08-17T21:12:04.469Z,57.31
2022-08-17T21:14:31.380Z,57.53
2022-08-17T21:17:17.692Z,57.67
2022-08-17T21:20:14.300Z,58.40
2022-08-17T21:22:42.186Z,57.65
2022-08-17T21:25:27.533Z,59.66
2022-08-17T21:28:03.637Z,60.26
2022-08-17T21:30:30.130Z,59.36
2022-08-17T21:33:16.878Z,59.52
2022-08-17T21:35:51.993Z,57.96
2022-08-17T21:38:22.073Z,57.55
2022-08-17T21:40:50.724Z,57.33
2022-08-17T21:43:23.883Z,57.61
2022-08-17T21:45:55.415Z,58.14
2022-08-17T21:48:24.516Z,57.76
2022-08-17T21:51:03.741Z,57.32
2022-08-17T21:53:42.296Z,58.58
2022-08-17T21:56:10.609Z,58.83
2022-08-17T21:58:40.077Z,58.99
2022-08-17T22:01:11.819Z,59.19
2022-08-17T22:03:38.717Z,59.58
2022-08-17T22:06:27.604Z,58.29
2022-08-17T22:09:09.322Z,58.81
2022-08-17T22:11:53.942Z,58.91
2022-08-17T22:14:24.333Z,59.99
2022-08-17T22:17:05.855Z,60.57
2022-08-17T22:19:34.912Z,60.17
2022-08-17T22:22:02.628Z,60.20
2022-08-17T22:24:31.010Z,60.91
2022-08-17T22:27:00.176Z,61.64
2022-08-17T22:29:42.616Z,62.50
2022-08-17T22:32:09.595Z,62.25
2022-08-17T22:34:37.016Z,61.99
2022-08-17T22:37:20.365Z,61.75
2022-08-17T22:39:58.880Z,60.98
2022-08-17T22:42:25.678Z,63.59
2022-08-17T22:44:53.191Z,64.69
2022-08-17T22:47:32.066Z,65.08
2022-08-17T22:49:59.788Z,63.96
2022-08-17T22:52:32.200Z,64.30
2022-08-17T22:55:23.730Z,62.88
2022-08-17T22:58:09.023Z,62.50
2022-08-17T23:00:40.839Z,62.32
2022-08-17T23:03:15.796Z,62.33
2022-08-17T23:05:44.916Z,62.57
2022-08-17T23:08:12.785Z,62.22
2022-08-17T23:10:42.732Z,62.20
2022-08-17T23:13:11.742Z,63.12
2022-08-17T23:15:39.962Z,64.04
2022-08-17T23:18:07.291Z,63.55
2022-08-17T23:20:35.245Z,62.59
2022-08-17T23:23:03.553Z,61.61
2022-08-17T23:25:31.675Z,61.26
2022-08-17T23:27:59.103Z,60.34
2022-08-17T23:30:28.508Z,59.35
2022-08-17T23:32:56.520Z,58.64
2022-08-17T23:35:40.051Z,56.98
2022-08-17T23:38:11.618Z,58.17
2022-08-17T23:40:39.504Z,58.01
2022-08-17T23:43:17.372Z,58.48
2022-08-17T23:45:51.791Z,60.54
2022-08-17T23:48:28.455Z,60.22
2022-08-17T23:51:04.430Z,59.69
2022-08-17T23:53:34.033Z,60.01
2022-08-17T23:56:07.606Z,61.82
2022-08-17T23:58:38.503Z,62.66
